createdAt,value
2023-01-06T00:01:05.196Z,1013.3
2023-01-06T00:02:13.187Z,1013.3
2023-01-06T00:03:22.535Z,1013.3
2023-01-06T00:04:31.712Z,1013.2
2023-01-06T00:05:40.902Z,1013.2
2023-01-06T00:06:50.103Z,1013.2
2023-01-06T00:07:59.244Z,1013.3
2023-01-06T00:09:08.416Z,1013.2
2023-01-06T00:10:17.596Z,1013.2
2023-01-06T00:11:26.611Z,1013.1
2023-01-06T00:12:35.873Z,1013.2
2023-01-06T00:13:45.055Z,1013.2
2023-01-06T00:14:54.259Z,1013.2
2023-01-06T00:16:03.390Z,1013.2
2023-01-06T00:17:11.644Z,1013.2
2023-01-06T00:18:20.809Z,1013.2
2023-01-06T00:20:39.177Z,1013.2
2023-01-06T00:21:48.298Z,1013.2
2023-01-06T00:22:57.474Z,1013.2
2023-01-06T00:24:06.496Z,1013.2
2023-01-06T00:25:15.723Z,1013.1
2023-01-06T00:26:25.013Z,1013.2
2023-01-06T00:27:34.216Z,1013.2
2023-01-06T00:28:43.353Z,1013.1
2023-01-06T00:29:52.531Z,1013.1
2023-01-06T00:31:01.743Z,1013.1
2023-01-06T00:32:09.887Z,1013.1
2023-01-06T00:33:18.127Z,1013.1
2023-01-06T00:34:26.251Z,1013.1
2023-01-06T00:35:34.478Z,1013.1
2023-01-06T00:36:42.473Z,1013.1
2023-01-06T00:37:51.833Z,1013.1
2023-01-06T00:39:00.994Z,1013
2023-01-06T00:40:10.226Z,1012.9
2023-01-06T00:41:19.342Z,1012.9
2023-01-06T00:42:28.513Z,1012.9
2023-01-06T00:44:46.917Z,1012.9
2023-01-06T00:45:55.994Z,1012.9
2023-01-06T00:47:05.057Z,1012.9
2023-01-06T00:48:14.413Z,1013
2023-01-06T00:49:23.516Z,1013
2023-01-06T00:50:32.673Z,1012.9
2023-01-06T00:51:40.955Z,1012.9
2023-01-06T00:52:50.076Z,1012.9
2023-01-06T00:53:59.262Z,1012.9
2023-01-06T00:55:08.363Z,1012.9
2023-01-06T00:56:17.631Z,1012.9
2023-01-06T00:57:26.771Z,1012.9
2023-01-06T00:58:35.785Z,1012.9
2023-01-06T00:59:45.178Z,1012.9
2023-01-06T01:00:54.342Z,1012.9
2023-01-06T01:02:03.404Z,1012.8
2023-01-06T01:03:11.681Z,1012.8
2023-01-06T01:04:20.898Z,1012.8
2023-01-06T01:05:28.849Z,1012.8
2023-01-06T01:06:38.209Z,1012.7
2023-01-06T01:07:47.416Z,1012.7
2023-01-06T01:08:55.612Z,1012.8
2023-01-06T01:10:03.578Z,1012.8
2023-01-06T01:11:12.964Z,1012.8
2023-01-06T01:12:22.189Z,1012.8
2023-01-06T01:13:31.264Z,1012.8
2023-01-06T01:14:40.482Z,1012.8
2023-01-06T01:15:49.615Z,1012.8
2023-01-06T01:16:58.766Z,1012.8
2023-01-06T01:18:08.011Z,1012.8
2023-01-06T01:19:17.138Z,1012.8
2023-01-06T01:20:26.355Z,1012.8
2023-01-06T01:21:35.494Z,1012.8
2023-01-06T01:22:44.680Z,1012.8
2023-01-06T01:23:53.882Z,1012.8
2023-01-06T01:25:02.087Z,1012.8
2023-01-06T01:26:11.229Z,1012.8
2023-01-06T01:27:20.272Z,1012.7
2023-01-06T01:28:29.532Z,1012.7
2023-01-06T01:29:38.533Z,1012.7
2023-01-06T01:30:47.924Z,1012.8
2023-01-06T01:31:57.067Z,1012.7
2023-01-06T01:33:05.267Z,1012.7
2023-01-06T01:34:13.450Z,1012.8
2023-01-06T01:36:31.781Z,1012.8
2023-01-06T01:37:39.991Z,1012.8
2023-01-06T01:38:48.191Z,1012.8
2023-01-06T01:39:57.153Z,1012.8
2023-01-06T01:41:06.512Z,1012.7
2023-01-06T01:42:15.516Z,1012.7
2023-01-06T01:43:24.826Z,1012.7
2023-01-06T01:44:34.010Z,1012.7
2023-01-06T01:45:43.129Z,1012.7
2023-01-06T01:46:52.357Z,1012.8
2023-01-06T01:48:01.539Z,1012.8
2023-01-06T01:49:10.709Z,1012.8
2023-01-06T01:50:19.719Z,1012.7
2023-01-06T01:51:29.070Z,1012.7
2023-01-06T01:52:38.245Z,1012.7
2023-01-06T01:53:46.415Z,1012.7
2023-01-06T01:54:55.635Z,1012.7
2023-01-06T01:56:04.758Z,1012.7
2023-01-06T01:57:13.957Z,1012.7
2023-01-06T01:58:23.102Z,1012.7
2023-01-06T01:59:32.298Z,1012.7
2023-01-06T02:00:41.457Z,1012.7
2023-01-06T02:01:49.656Z,1012.7
2023-01-06T02:02:57.805Z,1012.8
2023-01-06T02:04:05.989Z,1012.7
2023-01-06T02:05:14.230Z,1012.7
2023-01-06T02:06:23.405Z,1012.7
2023-01-06T02:07:32.555Z,1012.8
2023-01-06T02:08:41.757Z,1012.8
2023-01-06T02:09:50.932Z,1012.8
2023-01-06T02:11:00.124Z,1012.8
2023-01-06T02:12:09.304Z,1012.8
2023-01-06T02:13:18.434Z,1012.8
2023-01-06T02:14:27.621Z,1012.7
2023-01-06T02:15:36.795Z,1012.7
2023-01-06T02:16:45.942Z,1012.7
2023-01-06T02:17:55.029Z,1012.7
2023-01-06T02:19:04.296Z,1012.7
2023-01-06T02:20:12.515Z,1012.6
2023-01-06T02:21:21.732Z,1012.7
2023-01-06T02:22:30.971Z,1012.6
2023-01-06T02:23:39.996Z,1012.6
2023-01-06T02:24:49.178Z,1012.6
2023-01-06T02:25:58.391Z,1012.6
2023-01-06T02:27:07.519Z,1012.6
2023-01-06T02:28:15.699Z,1012.6
2023-01-06T02:29:23.903Z,1012.6
2023-01-06T02:30:33.104Z,1012.6
2023-01-06T02:31:42.290Z,1012.6
2023-01-06T02:32:51.423Z,1012.6
2023-01-06T02:34:00.591Z,1012.6
2023-01-06T02:35:08.837Z,1012.5
2023-01-06T02:36:16.941Z,1012.5
2023-01-06T02:38:34.352Z,1012.4
2023-01-06T02:39:42.555Z,1012.5
2023-01-06T02:40:51.787Z,1012.4
2023-01-06T02:42:00.931Z,1012.4
2023-01-06T02:43:10.065Z,1012.4
2023-01-06T02:44:19.235Z,1012.4
2023-01-06T02:45:28.386Z,1012.3
2023-01-06T02:46:37.615Z,1012.3
2023-01-06T02:47:46.680Z,1012.4
2023-01-06T02:48:55.918Z,1012.4
2023-01-06T02:50:05.094Z,1012.4
2023-01-06T02:51:14.282Z,1012.4
2023-01-06T02:52:23.301Z,1012.3
2023-01-06T02:53:32.560Z,1012.4
2023-01-06T02:54:40.758Z,1012.4
2023-01-06T02:55:49.947Z,1012.4
2023-01-06T02:56:58.965Z,1012.4
2023-01-06T02:58:08.333Z,1012.4
2023-01-06T02:59:17.430Z,1012.4
2023-01-06T03:00:25.679Z,1012.4
2023-01-06T03:01:33.842Z,1012.4
2023-01-06T03:02:41.910Z,1012.4
2023-01-06T03:03:50.245Z,1012.4
2023-01-06T03:04:59.359Z,1012.3
2023-01-06T03:06:08.548Z,1012.3
2023-01-06T03:07:17.690Z,1012.4
2023-01-06T03:08:26.765Z,1012.3
2023-01-06T03:09:35.932Z,1012.2
2023-01-06T03:10:45.328Z,1012.3
2023-01-06T03:11:54.361Z,1012.2
2023-01-06T03:13:03.598Z,1012.2
2023-01-06T03:14:12.711Z,1012.2
2023-01-06T03:15:21.801Z,1012.2
2023-01-06T03:16:31.009Z,1012.1
2023-01-06T03:17:40.293Z,1012.2
2023-01-06T03:18:48.470Z,1012.2
2023-01-06T03:19:57.533Z,1012.1
2023-01-06T03:21:06.694Z,1012.1
2023-01-06T03:22:15.863Z,1012.1
2023-01-06T03:23:25.195Z,1012.1
2023-01-06T03:24:34.349Z,1012.1
2023-01-06T03:25:43.440Z,1012.2
2023-01-06T03:28:00.852Z,1012.1
2023-01-06T03:29:09.086Z,1012.1
2023-01-06T03:30:17.219Z,1012.1
2023-01-06T03:31:25.320Z,1012.1
2023-01-06T03:32:33.552Z,1012.1
2023-01-06T03:33:42.734Z,1012
2023-01-06T03:34:51.859Z,1012
2023-01-06T03:36:01.184Z,1012
2023-01-06T03:37:10.272Z,1012
2023-01-06T03:38:19.381Z,1012
2023-01-06T03:39:28.542Z,1012
2023-01-06T03:40:37.781Z,1011.9
2023-01-06T03:41:46.989Z,1011.9
2023-01-06T03:42:56.240Z,1012
2023-01-06T03:44:05.369Z,1011.9
2023-01-06T03:45:14.414Z,1011.8
2023-01-06T03:46:23.580Z,1011.9
2023-01-06T03:47:31.764Z,1011.8
2023-01-06T03:48:41.074Z,1011.8
2023-01-06T03:49:50.202Z,1011.8
2023-01-06T03:50:59.408Z,1011.8
2023-01-06T03:52:08.501Z,1011.8
2023-01-06T03:53:17.798Z,1011.7
2023-01-06T03:54:26.879Z,1011.7
2023-01-06T03:55:36.049Z,1011.8
2023-01-06T03:56:45.146Z,1011.8
2023-01-06T03:57:54.430Z,1011.7
2023-01-06T03:59:03.513Z,1011.7
2023-01-06T04:00:12.788Z,1011.7
2023-01-06T04:01:21.983Z,1011.7
2023-01-06T04:02:30.098Z,1011.7
2023-01-06T04:03:39.192Z,1011.6
2023-01-06T04:04:48.519Z,1011.6
2023-01-06T04:05:57.560Z,1011.7
2023-01-06T04:07:06.721Z,1011.6
2023-01-06T04:08:15.899Z,1011.6
2023-01-06T04:09:25.075Z,1011.6
2023-01-06T04:10:34.246Z,1011.6
2023-01-06T04:11:43.410Z,1011.6
2023-01-06T04:12:52.645Z,1011.6
2023-01-06T04:14:01.746Z,1011.5
2023-01-06T04:15:10.971Z,1011.6
2023-01-06T04:16:20.095Z,1011.6
2023-01-06T04:17:28.283Z,1011.5
2023-01-06T04:18:37.517Z,1011.4
2023-01-06T04:19:46.672Z,1011.4
2023-01-06T04:20:55.840Z,1011.4
2023-01-06T04:22:04.995Z,1011.4
2023-01-06T04:23:14.188Z,1011.4
2023-01-06T04:24:23.343Z,1011.3
2023-01-06T04:25:32.498Z,1011.4
2023-01-06T04:26:41.672Z,1011.4
2023-01-06T04:27:50.896Z,1011.4
2023-01-06T04:29:00.017Z,1011.3
2023-01-06T04:30:09.194Z,1011.3
2023-01-06T04:31:18.371Z,1011.2
2023-01-06T04:32:26.585Z,1011.1
2023-01-06T04:33:35.728Z,1011.2
2023-01-06T04:34:44.907Z,1011.1
2023-01-06T04:35:54.137Z,1011.2
2023-01-06T04:37:03.224Z,1011.3
2023-01-06T04:38:12.405Z,1011.2
2023-01-06T04:39:21.607Z,1011.2
2023-01-06T04:40:30.776Z,1011.2
2023-01-06T04:41:39.923Z,1011.2
2023-01-06T04:42:49.109Z,1011.2
2023-01-06T04:43:57.305Z,1011.1
2023-01-06T04:45:05.524Z,1011.1
2023-01-06T04:46:14.706Z,1011.1
2023-01-06T04:47:23.834Z,1011.2
2023-01-06T04:48:33.009Z,1011.1
2023-01-06T04:49:41.241Z,1011.2
2023-01-06T04:50:49.396Z,1011.2
2023-01-06T04:51:58.559Z,1011.1
2023-01-06T04:53:07.738Z,1011.2
2023-01-06T04:54:16.906Z,1011.1
2023-01-06T04:55:26.097Z,1011.1
2023-01-06T04:56:35.336Z,1011.1
2023-01-06T04:57:44.419Z,1011
2023-01-06T04:58:53.598Z,1011
2023-01-06T05:00:02.772Z,1010.9
2023-01-06T05:01:11.946Z,1010.9
2023-01-06T05:02:21.103Z,1011
2023-01-06T05:03:30.281Z,1010.9
2023-01-06T05:04:39.494Z,1010.8
2023-01-06T05:05:47.746Z,1010.8
2023-01-06T05:06:56.929Z,1010.8
2023-01-06T05:08:05.993Z,1010.8
2023-01-06T05:09:15.162Z,1010.8
2023-01-06T05:10:24.342Z,1010.8
2023-01-06T05:11:33.551Z,1010.8
2023-01-06T05:12:42.680Z,1010.8
2023-01-06T05:13:50.879Z,1010.9
2023-01-06T05:15:00.049Z,1010.8
2023-01-06T05:16:08.230Z,1010.9
2023-01-06T05:17:17.494Z,1010.8
2023-01-06T05:18:26.807Z,1010.8
2023-01-06T05:19:35.761Z,1010.8
2023-01-06T05:20:43.960Z,1010.8
2023-01-06T05:21:52.141Z,1010.8
2023-01-06T05:23:01.315Z,1010.8
2023-01-06T05:24:10.511Z,1010.7
2023-01-06T05:25:19.650Z,1010.7
2023-01-06T05:26:28.839Z,1010.6
2023-01-06T05:27:37.998Z,1010.6
2023-01-06T05:28:47.173Z,1010.7
2023-01-06T05:29:56.347Z,1010.6
2023-01-06T05:31:05.521Z,1010.7
2023-01-06T05:32:14.689Z,1010.7
2023-01-06T05:33:23.859Z,1010.8
2023-01-06T05:34:33.041Z,1010.6
2023-01-06T05:35:42.224Z,1010.8
2023-01-06T05:36:51.393Z,1010.7
2023-01-06T05:37:59.565Z,1010.6
2023-01-06T05:39:08.752Z,1010.7
2023-01-06T05:40:17.913Z,1010.6
2023-01-06T05:41:27.083Z,1010.6
2023-01-06T05:42:36.259Z,1010.7
2023-01-06T05:43:45.485Z,1010.7
2023-01-06T05:44:53.630Z,1010.7
2023-01-06T05:46:01.815Z,1010.7
2023-01-06T05:47:11.013Z,1010.7
2023-01-06T05:48:20.158Z,1010.6
2023-01-06T05:49:29.340Z,1010.7
2023-01-06T05:50:38.516Z,1010.7
2023-01-06T05:51:46.711Z,1010.6
2023-01-06T05:52:54.908Z,1010.7
2023-01-06T05:54:04.085Z,1010.6
2023-01-06T05:55:13.243Z,1010.7
2023-01-06T05:56:22.408Z,1010.7
2023-01-06T05:57:31.575Z,1010.7
2023-01-06T05:58:40.754Z,1010.7
2023-01-06T05:59:49.921Z,1010.7
2023-01-06T06:00:59.090Z,1010.8
2023-01-06T06:02:08.298Z,1010.8
2023-01-06T06:03:17.444Z,1010.8
2023-01-06T06:04:26.628Z,1010.8
2023-01-06T06:05:35.785Z,1010.7
2023-01-06T06:06:45.007Z,1010.7
2023-01-06T06:07:53.152Z,1010.6
2023-01-06T06:09:02.321Z,1010.7
2023-01-06T06:10:11.504Z,1010.6
2023-01-06T06:11:20.720Z,1010.7
2023-01-06T06:12:29.850Z,1010.7
2023-01-06T06:13:39.012Z,1010.7
2023-01-06T06:14:48.175Z,1010.7
2023-01-06T06:15:57.354Z,1010.8
2023-01-06T06:17:06.533Z,1010.7
2023-01-06T06:18:15.702Z,1010.8
2023-01-06T06:19:24.978Z,1010.7
2023-01-06T06:20:34.042Z,1010.7
2023-01-06T06:21:43.263Z,1010.7
2023-01-06T06:22:51.413Z,1010.6
2023-01-06T06:24:00.617Z,1010.7
2023-01-06T06:25:09.764Z,1010.7
2023-01-06T06:26:18.926Z,1010.7
2023-01-06T06:27:28.127Z,1010.6
2023-01-06T06:28:36.297Z,1010.6
2023-01-06T06:29:44.476Z,1010.8
2023-01-06T06:30:52.665Z,1010.7
2023-01-06T06:32:01.855Z,1010.7
2023-01-06T06:33:10.031Z,1010.7
2023-01-06T06:34:19.215Z,1010.6
2023-01-06T06:35:27.412Z,1010.7
2023-01-06T06:36:36.612Z,1010.6
2023-01-06T06:37:45.778Z,1010.6
2023-01-06T06:38:54.912Z,1010.6
2023-01-06T06:40:04.082Z,1010.6
2023-01-06T06:41:13.256Z,1010.6
2023-01-06T06:42:22.575Z,1010.6
2023-01-06T06:43:31.596Z,1010.6
2023-01-06T06:44:40.793Z,1010.6
2023-01-06T06:45:49.960Z,1010.7
2023-01-06T06:46:59.114Z,1010.6
2023-01-06T06:48:08.280Z,1010.7
2023-01-06T06:49:17.462Z,1010.6
2023-01-06T06:50:25.645Z,1010.6
2023-01-06T06:51:34.824Z,1010.6
2023-01-06T06:52:43.993Z,1010.6
2023-01-06T06:53:53.215Z,1010.6
2023-01-06T06:55:02.333Z,1010.7
2023-01-06T06:56:11.516Z,1010.6
2023-01-06T06:57:19.719Z,1010.6
2023-01-06T06:58:27.937Z,1010.6
2023-01-06T06:59:37.063Z,1010.6
2023-01-06T07:00:45.259Z,1010.6
2023-01-06T07:01:53.500Z,1010.6
2023-01-06T07:03:02.664Z,1010.5
2023-01-06T07:04:11.896Z,1010.6
2023-01-06T07:05:20.955Z,1010.5
2023-01-06T07:06:30.285Z,1010.5
2023-01-06T07:07:39.425Z,1010.4
2023-01-06T07:08:48.556Z,1010.5
2023-01-06T07:11:06.871Z,1010.3
2023-01-06T07:12:16.126Z,1010.3
2023-01-06T07:13:25.183Z,1010.3
2023-01-06T07:14:34.345Z,1010.2
2023-01-06T07:15:43.586Z,1010.2
2023-01-06T07:16:51.710Z,1010.3
2023-01-06T07:18:00.878Z,1010.1
2023-01-06T07:19:10.145Z,1010.2
2023-01-06T07:20:19.228Z,1010.2
2023-01-06T07:21:28.408Z,1010.2
2023-01-06T07:22:37.585Z,1010.1
2023-01-06T07:23:46.781Z,1010.2
2023-01-06T07:24:55.913Z,1010.2
2023-01-06T07:26:05.122Z,1010.1
2023-01-06T07:27:14.309Z,1010.1
2023-01-06T07:28:23.432Z,1010.1
2023-01-06T07:29:32.602Z,1010.1
2023-01-06T07:30:41.781Z,1010.1
2023-01-06T07:31:50.080Z,1010.2
2023-01-06T07:32:59.135Z,1010.1
2023-01-06T07:34:08.363Z,1010.1
2023-01-06T07:35:17.476Z,1010.1
2023-01-06T07:36:26.650Z,1010.1
2023-01-06T07:37:36.101Z,1010.2
2023-01-06T07:38:45.009Z,1010.1
2023-01-06T07:39:54.160Z,1010.2
2023-01-06T07:41:03.370Z,1010.1
2023-01-06T07:42:12.514Z,1010.1
2023-01-06T07:43:21.715Z,1010.1
2023-01-06T07:44:30.852Z,1010.1
2023-01-06T07:45:40.071Z,1010.1
2023-01-06T07:46:48.231Z,1010.1
2023-01-06T07:47:56.460Z,1010.1
2023-01-06T07:49:04.651Z,1010.1
2023-01-06T07:50:12.788Z,1010.1
2023-01-06T07:51:21.012Z,1010.2
2023-01-06T07:52:30.260Z,1010.2
2023-01-06T07:53:39.336Z,1010.2
2023-01-06T07:54:48.499Z,1010.2
2023-01-06T07:55:57.751Z,1010.2
2023-01-06T07:57:06.852Z,1010.3
2023-01-06T07:58:16.019Z,1010.3
2023-01-06T07:59:25.237Z,1010.3
2023-01-06T08:00:34.533Z,1010.3
2023-01-06T08:01:43.560Z,1010.3
2023-01-06T08:02:52.742Z,1010.3
2023-01-06T08:04:01.984Z,1010.4
2023-01-06T08:06:20.305Z,1010.3
2023-01-06T08:07:28.545Z,1010.4
2023-01-06T08:08:37.703Z,1010.3
2023-01-06T08:09:46.959Z,1010.4
2023-01-06T08:10:55.941Z,1010.4
2023-01-06T08:12:05.106Z,1010.4
2023-01-06T08:13:14.385Z,1010.4
2023-01-06T08:14:23.511Z,1010.3
2023-01-06T08:15:32.819Z,1010.3
2023-01-06T08:17:50.989Z,1010.3
2023-01-06T08:19:00.227Z,1010.3
2023-01-06T08:20:09.369Z,1010.4
2023-01-06T08:21:18.492Z,1010.4
2023-01-06T08:22:26.781Z,1010.3
2023-01-06T08:23:35.917Z,1010.3
2023-01-06T08:24:45.135Z,1010.3
2023-01-06T08:25:54.357Z,1010.4
2023-01-06T08:27:02.401Z,1010.2
2023-01-06T08:28:10.573Z,1010.3
2023-01-06T08:29:19.998Z,1010.4
2023-01-06T08:30:29.233Z,1010.4
2023-01-06T08:31:38.259Z,1010.5
2023-01-06T08:32:47.365Z,1010.5
2023-01-06T08:33:56.640Z,1010.5
2023-01-06T08:35:05.807Z,1010.5
2023-01-06T08:36:14.965Z,1010.5
2023-01-06T08:37:23.193Z,1010.5
2023-01-06T08:38:31.171Z,1010.4
2023-01-06T08:40:49.678Z,1010.6
2023-01-06T08:41:58.867Z,1010.6
2023-01-06T08:44:17.212Z,1010.7
2023-01-06T08:45:26.436Z,1010.7
2023-01-06T08:46:35.633Z,1010.7
2023-01-06T08:47:44.550Z,1010.7
2023-01-06T08:48:53.881Z,1010.8
2023-01-06T08:50:03.052Z,1010.8
2023-01-06T08:51:12.247Z,1010.8
2023-01-06T08:52:20.441Z,1010.7
2023-01-06T08:54:37.792Z,1010.9
2023-01-06T08:55:46.953Z,1010.8
2023-01-06T08:56:56.126Z,1010.8
2023-01-06T08:58:05.331Z,1010.8
2023-01-06T08:59:14.425Z,1010.9
2023-01-06T09:00:23.657Z,1010.7
2023-01-06T09:01:32.789Z,1010.8
2023-01-06T09:02:41.953Z,1010.7
2023-01-06T09:03:50.999Z,1010.9
2023-01-06T09:05:00.280Z,1010.8
2023-01-06T09:06:08.496Z,1010.9
2023-01-06T09:07:16.708Z,1010.8
2023-01-06T09:08:25.886Z,1010.8
2023-01-06T09:09:34.981Z,1010.9
2023-01-06T09:10:44.251Z,1010.9
2023-01-06T09:11:53.460Z,1010.9
2023-01-06T09:13:02.553Z,1010.9
2023-01-06T09:14:11.803Z,1010.9
2023-01-06T09:15:20.927Z,1011
2023-01-06T09:16:29.928Z,1011.1
2023-01-06T09:17:39.284Z,1010.9
2023-01-06T09:18:48.524Z,1011
2023-01-06T09:19:57.535Z,1011
2023-01-06T09:21:06.859Z,1011
2023-01-06T09:23:24.184Z,1011
2023-01-06T09:24:33.300Z,1011.1
2023-01-06T09:25:42.492Z,1011
2023-01-06T09:26:51.502Z,1010.9
2023-01-06T09:30:19.176Z,1011.2
2023-01-06T09:31:27.396Z,1011.1
2023-01-06T09:32:35.610Z,1011.1
2023-01-06T09:33:44.817Z,1011.1
2023-01-06T09:34:53.927Z,1011.2
2023-01-06T09:36:02.923Z,1011.3
2023-01-06T09:37:12.271Z,1011.2
2023-01-06T09:38:21.413Z,1011.3
2023-01-06T09:39:30.603Z,1011.2
2023-01-06T09:40:39.785Z,1011.3
2023-01-06T09:41:48.957Z,1011.3
2023-01-06T09:42:58.153Z,1011.3
2023-01-06T09:44:06.327Z,1011.2
2023-01-06T09:45:14.501Z,1011.2
2023-01-06T09:46:23.519Z,1011.4
2023-01-06T09:47:32.689Z,1011.3
2023-01-06T09:48:41.860Z,1011.3
2023-01-06T09:49:51.214Z,1011.4
2023-01-06T09:51:00.425Z,1011.3
2023-01-06T09:52:09.594Z,1011.4
2023-01-06T09:53:18.692Z,1011.4
2023-01-06T09:54:27.731Z,1011.4
2023-01-06T09:55:36.900Z,1011.4
2023-01-06T09:56:46.140Z,1011.3
2023-01-06T09:57:55.401Z,1011.4
2023-01-06T09:59:04.471Z,1011.3
2023-01-06T10:00:12.783Z,1011.4
2023-01-06T10:01:21.938Z,1011.4
2023-01-06T10:02:30.946Z,1011.4
2023-01-06T10:03:40.428Z,1011.4
2023-01-06T10:04:49.444Z,1011.3
2023-01-06T10:05:58.469Z,1011.5
2023-01-06T10:07:07.810Z,1011.4
2023-01-06T10:08:16.028Z,1011.4
2023-01-06T10:09:24.016Z,1011.4
2023-01-06T10:10:32.395Z,1011.4
2023-01-06T10:11:40.406Z,1011.4
2023-01-06T10:12:49.613Z,1011.4
2023-01-06T10:13:58.947Z,1011.3
2023-01-06T10:15:08.105Z,1011.3
2023-01-06T10:16:17.215Z,1011.3
2023-01-06T10:17:26.292Z,1011.3
2023-01-06T10:18:35.635Z,1011.2
2023-01-06T10:19:44.615Z,1011.3
2023-01-06T10:20:54.015Z,1011.3
2023-01-06T10:22:02.164Z,1011.3
2023-01-06T10:23:11.301Z,1011.4
2023-01-06T10:24:20.501Z,1011.3
2023-01-06T10:25:29.498Z,1011.3
2023-01-06T10:26:38.827Z,1011.4
2023-01-06T10:27:48.012Z,1011.5
2023-01-06T10:28:57.044Z,1011.5
2023-01-06T10:30:06.301Z,1011.6
2023-01-06T10:31:15.547Z,1011.5
2023-01-06T10:32:24.544Z,1011.6
2023-01-06T10:33:33.879Z,1011.7
2023-01-06T10:34:43.028Z,1011.6
2023-01-06T10:35:52.177Z,1011.6
2023-01-06T10:37:00.434Z,1011.6
2023-01-06T10:38:09.578Z,1011.6
2023-01-06T10:39:18.739Z,1011.6
2023-01-06T10:40:27.913Z,1011.6
2023-01-06T10:41:37.074Z,1011.6
2023-01-06T10:42:46.181Z,1011.7
2023-01-06T10:43:55.441Z,1011.7
2023-01-06T10:45:04.571Z,1011.8
2023-01-06T10:46:13.755Z,1011.8
2023-01-06T10:47:22.903Z,1011.8
2023-01-06T10:48:32.157Z,1011.9
2023-01-06T10:49:40.296Z,1011.9
2023-01-06T10:50:48.513Z,1011.8
2023-01-06T10:51:57.655Z,1011.8
2023-01-06T10:53:06.765Z,1011.8
2023-01-06T10:54:15.863Z,1011.9
2023-01-06T10:55:25.176Z,1011.9
2023-01-06T10:56:34.363Z,1011.8
2023-01-06T10:57:43.409Z,1011.8
2023-01-06T10:58:52.554Z,1011.8
2023-01-06T11:00:01.776Z,1011.8
2023-01-06T11:01:10.967Z,1011.7
2023-01-06T11:03:29.248Z,1011.7
2023-01-06T11:04:38.595Z,1011.7
2023-01-06T11:06:56.806Z,1011.8
2023-01-06T11:08:05.046Z,1011.8
2023-01-06T11:09:13.206Z,1011.8
2023-01-06T11:10:22.313Z,1011.7
2023-01-06T11:11:30.579Z,1011.8
2023-01-06T11:12:38.821Z,1011.8
2023-01-06T11:13:48.006Z,1011.8
2023-01-06T11:14:57.045Z,1011.8
2023-01-06T11:16:06.275Z,1011.9
2023-01-06T11:17:15.505Z,1011.9
2023-01-06T11:18:24.602Z,1011.9
2023-01-06T11:19:33.751Z,1011.8
2023-01-06T11:20:43.005Z,1011.8
2023-01-06T11:21:52.126Z,1011.7
2023-01-06T11:23:01.264Z,1011.7
2023-01-06T11:24:09.496Z,1011.6
2023-01-06T11:25:17.788Z,1011.7
2023-01-06T11:26:26.976Z,1011.7
2023-01-06T11:27:35.976Z,1011.6
2023-01-06T11:28:45.392Z,1011.6
2023-01-06T11:29:54.390Z,1011.6
2023-01-06T11:31:03.559Z,1011.7
2023-01-06T11:32:12.874Z,1011.7
2023-01-06T11:33:21.998Z,1011.6
2023-01-06T11:34:31.154Z,1011.6
2023-01-06T11:35:40.324Z,1011.6
2023-01-06T11:36:49.348Z,1011.6
2023-01-06T11:37:58.753Z,1011.7
2023-01-06T11:39:07.739Z,1011.7
2023-01-06T11:40:15.880Z,1011.6
2023-01-06T11:41:25.321Z,1011.7
2023-01-06T11:42:34.257Z,1011.7
2023-01-06T11:43:43.634Z,1011.7
2023-01-06T11:44:52.753Z,1011.6
2023-01-06T11:46:01.856Z,1011.8
2023-01-06T11:47:11.109Z,1011.7
2023-01-06T11:48:19.102Z,1011.7
2023-01-06T11:49:28.425Z,1011.7
2023-01-06T11:50:36.628Z,1011.6
2023-01-06T11:51:45.640Z,1011.7
2023-01-06T11:52:54.972Z,1011.7
2023-01-06T11:54:03.015Z,1011.7
2023-01-06T11:55:11.318Z,1011.6
2023-01-06T11:56:20.513Z,1011.7
2023-01-06T11:57:29.650Z,1011.7
2023-01-06T11:58:38.826Z,1011.7
2023-01-06T11:59:48.036Z,1011.7
2023-01-06T12:00:57.158Z,1011.7
2023-01-06T12:02:06.231Z,1011.7
2023-01-06T12:03:15.409Z,1011.8
2023-01-06T12:04:24.627Z,1011.8
2023-01-06T12:05:33.749Z,1011.8
2023-01-06T12:06:43.027Z,1011.8
2023-01-06T12:07:52.182Z,1011.8
2023-01-06T12:10:10.519Z,1011.9
2023-01-06T12:11:18.735Z,1011.9
2023-01-06T12:12:27.803Z,1011.9
2023-01-06T12:13:37.012Z,1011.9
2023-01-06T12:14:46.328Z,1011.9
2023-01-06T12:15:55.500Z,1011.9
2023-01-06T12:17:04.644Z,1011.9
2023-01-06T12:18:13.759Z,1012
2023-01-06T12:19:22.041Z,1011.9
2023-01-06T12:20:30.180Z,1011.9
2023-01-06T12:21:39.209Z,1011.8
2023-01-06T12:22:48.396Z,1011.9
2023-01-06T12:23:56.727Z,1011.8
2023-01-06T12:25:04.943Z,1011.8
2023-01-06T12:26:14.062Z,1011.8
2023-01-06T12:27:23.167Z,1011.7
2023-01-06T12:28:32.391Z,1011.7
2023-01-06T12:29:41.448Z,1011.8
2023-01-06T12:30:50.674Z,1011.7
2023-01-06T12:31:59.914Z,1011.7
2023-01-06T12:33:09.135Z,1011.7
2023-01-06T12:34:18.318Z,1011.7
2023-01-06T12:35:27.396Z,1011.7
2023-01-06T12:36:36.683Z,1011.6
2023-01-06T12:37:45.682Z,1011.7
2023-01-06T12:38:54.987Z,1011.7
2023-01-06T12:40:03.216Z,1011.6
2023-01-06T12:41:12.384Z,1011.6
2023-01-06T12:43:30.694Z,1011.8
2023-01-06T12:44:39.937Z,1011.7
2023-01-06T12:45:48.972Z,1011.8
2023-01-06T12:46:58.072Z,1011.8
2023-01-06T12:48:07.421Z,1011.7
2023-01-06T12:49:16.581Z,1011.8
2023-01-06T12:50:25.576Z,1011.8
2023-01-06T12:51:34.887Z,1011.8
2023-01-06T12:52:43.918Z,1011.8
2023-01-06T12:53:53.225Z,1011.8
2023-01-06T12:55:01.459Z,1011.8
2023-01-06T12:56:10.592Z,1011.8
2023-01-06T12:57:19.625Z,1011.8
2023-01-06T12:58:28.796Z,1011.8
2023-01-06T12:59:38.185Z,1011.9
2023-01-06T13:00:47.315Z,1011.9
2023-01-06T13:01:56.497Z,1011.9
2023-01-06T13:03:05.568Z,1011.8
2023-01-06T13:04:14.861Z,1011.8
2023-01-06T13:05:23.892Z,1011.8
2023-01-06T13:06:33.185Z,1011.8
2023-01-06T13:07:41.220Z,1011.8
2023-01-06T13:08:49.383Z,1011.9
2023-01-06T13:09:58.588Z,1011.9
2023-01-06T13:11:07.810Z,1011.8
2023-01-06T13:12:15.962Z,1011.9
2023-01-06T13:13:24.271Z,1011.8
2023-01-06T13:14:33.370Z,1011.8
2023-01-06T13:15:42.541Z,1011.9
2023-01-06T13:16:51.827Z,1011.9
2023-01-06T13:18:00.817Z,1011.9
2023-01-06T13:19:10.039Z,1011.9
2023-01-06T13:20:19.146Z,1011.9
2023-01-06T13:21:28.319Z,1012
2023-01-06T13:22:37.522Z,1011.9
2023-01-06T13:23:46.687Z,1012
2023-01-06T13:24:55.901Z,1011.9
2023-01-06T13:26:05.155Z,1011.9
2023-01-06T13:28:23.560Z,1011.9
2023-01-06T13:29:31.700Z,1011.8
2023-01-06T13:30:40.759Z,1011.8
2023-01-06T13:31:49.938Z,1011.8
2023-01-06T13:32:59.212Z,1011.8
2023-01-06T13:34:08.348Z,1011.9
2023-01-06T13:35:17.556Z,1011.8
2023-01-06T13:36:26.748Z,1011.7
2023-01-06T13:37:34.768Z,1011.8
2023-01-06T13:38:43.090Z,1011.8
2023-01-06T13:39:52.125Z,1011.8
2023-01-06T13:41:01.422Z,1011.8
2023-01-06T13:42:10.482Z,1011.7
2023-01-06T13:43:19.850Z,1011.7
2023-01-06T13:44:28.898Z,1011.8
2023-01-06T13:45:38.165Z,1011.7
2023-01-06T13:46:46.184Z,1011.8
2023-01-06T13:47:54.463Z,1011.7
2023-01-06T13:49:03.565Z,1011.7
2023-01-06T13:50:12.882Z,1011.8
2023-01-06T13:51:21.999Z,1011.7
2023-01-06T13:52:31.245Z,1011.7
2023-01-06T13:53:40.351Z,1011.7
2023-01-06T13:54:49.527Z,1011.8
2023-01-06T13:55:58.746Z,1011.8
2023-01-06T13:57:07.772Z,1011.8
2023-01-06T13:58:17.058Z,1011.8
2023-01-06T13:59:26.219Z,1011.8
2023-01-06T14:00:35.448Z,1011.7
2023-01-06T14:01:44.571Z,1011.8
2023-01-06T14:02:52.763Z,1011.8
2023-01-06T14:04:01.806Z,1011.8
2023-01-06T14:05:11.096Z,1011.8
2023-01-06T14:06:20.350Z,1011.8
2023-01-06T14:07:29.492Z,1011.8
2023-01-06T14:08:38.670Z,1011.8
2023-01-06T14:09:47.831Z,1011.8
2023-01-06T14:10:55.875Z,1011.8
2023-01-06T14:12:04.081Z,1011.8
2023-01-06T14:13:12.258Z,1011.7
2023-01-06T14:14:20.508Z,1011.8
2023-01-06T14:15:29.786Z,1011.7
2023-01-06T14:16:38.916Z,1011.7
2023-01-06T14:17:48.071Z,1011.7
2023-01-06T14:18:57.347Z,1011.7
2023-01-06T14:20:06.498Z,1011.7
2023-01-06T14:21:15.571Z,1011.7
2023-01-06T14:22:24.667Z,1011.8
2023-01-06T14:23:33.911Z,1011.8
2023-01-06T14:24:43.110Z,1011.8
2023-01-06T14:25:52.308Z,1011.8
2023-01-06T14:27:01.399Z,1011.7
2023-01-06T14:28:10.582Z,1011.8
2023-01-06T14:29:18.871Z,1011.9
2023-01-06T14:30:28.018Z,1011.9
2023-01-06T14:31:37.147Z,1011.9
2023-01-06T14:32:46.307Z,1011.9
2023-01-06T14:33:55.539Z,1011.9
2023-01-06T14:35:04.727Z,1011.9
2023-01-06T14:36:13.736Z,1011.9
2023-01-06T14:37:23.050Z,1011.9
2023-01-06T14:38:32.216Z,1011.9
2023-01-06T14:39:41.312Z,1011.9
2023-01-06T14:40:50.483Z,1011.8
2023-01-06T14:41:59.771Z,1011.8
2023-01-06T14:43:08.952Z,1011.8
2023-01-06T14:44:17.166Z,1011.8